Time;durP1;ratioP1;P1;durP2;ratioP2;P2;SDS_P1;SDS_P2;PMS_P1;PMS_P2;Temp;Humidity;BMP_temperature;BMP_pressure;BME280_temperature;BME280_humidity;BME280_pressure;Samples;Min_cycle;Max_cycle;Signal;HPM_P1;HPM_P2
2021/12/19 00:01:03;;;;;;;50.23;22.40;;;-0.20;99.90;;;;;;5035233;28;20031;-74
2021/12/19 00:11:07;;;;;;;42.77;21.80;;;-0.30;99.90;;;;;;4969070;28;20023;-74
2021/12/19 00:13:33;;;;;;;43.43;20.80;;;-0.10;99.90;;;;;;4968635;28;20076;-74
2021/12/19 00:15:59;;;;;;;40.50;21.10;;;-0.10;99.90;;;;;;4968354;28;20065;-74
2021/12/19 00:18:25;;;;;;;43.60;20.03;;;-0.10;99.90;;;;;;4968645;28;20039;-74
2021/12/19 00:20:50;;;;;;;41.47;19.67;;;-0.20;99.90;;;;;;4972017;28;20505;-74
2021/12/19 00:23:17;;;;;;;39.37;18.73;;;-0.20;99.90;;;;;;4972168;28;20034;-74
2021/12/19 00:25:43;;;;;;;40.90;19.90;;;-0.20;99.90;;;;;;4972228;28;20420;-74
2021/12/19 00:28:09;;;;;;;38.40;18.50;;;-0.30;99.90;;;;;;4971740;28;20030;-74
2021/12/19 00:30:34;;;;;;;42.40;19.73;;;-0.30;99.90;;;;;;5038742;28;20034;-74
2021/12/19 00:33:00;;;;;;;40.70;18.47;;;-0.30;99.90;;;;;;4972031;28;20023;-74
2021/12/19 00:35:26;;;;;;;40.97;19.97;;;-0.30;99.90;;;;;;4971967;28;20035;-74
2021/12/19 00:37:52;;;;;;;43.67;20.80;;;-0.30;99.90;;;;;;5039107;28;20037;-74
2021/12/19 00:40:19;;;;;;;40.53;19.83;;;-0.40;99.90;;;;;;4972013;28;20454;-74
2021/12/19 00:42:51;;;;;;;39.97;20.47;;;-0.30;99.90;;;;;;4972170;28;20058;-74
2021/12/19 00:45:27;;;;;;;42.80;20.67;;;-0.30;99.90;;;;;;4971795;28;20117;-74
2021/12/19 00:47:52;;;;;;;;;;;-0.30;99.90;;;;;;4972351;28;20030;-73
2021/12/19 00:50:18;;;;;;;47.60;20.57;;;-0.30;99.90;;;;;;4971849;28;19906;-74
2021/12/19 00:52:46;;;;;;;48.87;22.40;;;-0.40;99.90;;;;;;4971450;28;20148;-74
2021/12/19 00:55:14;;;;;;;51.30;23.93;;;-0.40;99.90;;;;;;4971939;28;20027;-74
2021/12/19 00:57:40;;;;;;;46.50;21.80;;;-0.30;99.90;;;;;;4971560;28;20098;-73
2021/12/19 01:00:08;;;;;;;48.10;22.27;;;-0.30;99.90;;;;;;4971527;28;20497;-74
2021/12/19 01:02:33;;;;;;;43.33;21.43;;;-0.30;99.90;;;;;;4971698;28;20031;-74
2021/12/19 01:04:59;;;;;;;50.30;23.23;;;-0.30;99.90;;;;;;4971561;28;20046;-74
2021/12/19 01:07:25;;;;;;;52.03;23.63;;;-0.40;99.90;;;;;;5038478;28;20080;-74
2021/12/19 01:09:51;;;;;;;48.17;22.50;;;-0.40;99.90;;;;;;5038423;28;20023;-74
2021/12/19 01:12:16;;;;;;;51.37;23.13;;;-0.40;99.90;;;;;;4971428;28;20016;-74
2021/12/19 01:14:42;;;;;;;51.73;22.97;;;-0.40;99.90;;;;;;4971200;28;20027;-74
2021/12/19 01:17:08;;;;;;;51.27;24.00;;;-0.40;99.90;;;;;;4971229;28;20452;-73
2021/12/19 01:19:35;;;;;;;43.07;22.10;;;-0.40;99.90;;;;;;4971457;28;20412;-74
2021/12/19 01:22:00;;;;;;;44.83;20.30;;;-0.40;99.90;;;;;;4971329;28;20038;-73
2021/12/19 01:24:26;;;;;;;45.03;20.80;;;-0.40;99.90;;;;;;4971317;28;20114;-74
2021/12/19 01:26:51;;;;;;;42.63;20.63;;;-0.50;99.90;;;;;;4971249;28;20081;-74
2021/12/19 01:29:17;;;;;;;44.10;20.10;;;-0.50;99.90;;;;;;4971294;28;20030;-73
2021/12/19 01:31:43;;;;;;;49.47;22.23;;;-0.50;99.90;;;;;;4970938;28;20023;-74
2021/12/19 01:34:12;;;;;;;48.50;22.07;;;-0.50;99.90;;;;;;5037842;28;20031;-73
2021/12/19 01:36:42;;;;;;;48.23;22.00;;;-0.50;99.90;;;;;;4971493;28;20023;-73
2021/12/19 01:39:09;;;;;;;46.70;21.60;;;-0.50;99.90;;;;;;4971290;28;20141;-74
2021/12/19 01:41:42;;;;;;;48.30;22.83;;;-0.60;99.90;;;;;;4970669;28;20049;-74
2021/12/19 01:44:09;;;;;;;48.97;21.53;;;-0.60;99.90;;;;;;4971187;28;20114;-73
2021/12/19 01:46:35;;;;;;;47.47;21.97;;;-0.60;99.90;;;;;;4971246;28;20058;-74
2021/12/19 01:49:00;;;;;;;43.10;21.13;;;-0.60;99.90;;;;;;5037439;28;20429;-73
2021/12/19 01:51:26;;;;;;;43.23;21.37;;;-0.60;99.90;;;;;;5037709;28;20065;-73
2021/12/19 01:53:52;;;;;;;49.47;22.83;;;-0.50;99.90;;;;;;5037251;28;20073;-73
2021/12/19 01:56:17;;;;;;;50.67;23.60;;;-0.50;99.90;;;;;;5037725;28;20034;-74
2021/12/19 01:58:45;;;;;;;49.00;22.83;;;-0.50;99.90;;;;;;4970908;28;20050;-74
2021/12/19 02:01:11;;;;;;;42.10;21.83;;;-0.50;99.90;;;;;;4970511;28;20035;-74
2021/12/19 02:03:37;;;;;;;45.77;21.77;;;-0.40;99.90;;;;;;4970784;28;20026;-74
2021/12/19 02:06:03;;;;;;;45.03;21.23;;;-0.40;99.90;;;;;;4970913;28;20098;-73
2021/12/19 02:08:31;;;;;;;47.07;22.90;;;-0.50;99.90;;;;;;4971005;28;20171;-73
2021/12/19 02:10:57;;;;;;;52.23;22.13;;;-0.50;99.90;;;;;;4970214;28;20042;-73
2021/12/19 02:13:22;;;;;;;49.00;22.97;;;-0.60;99.90;;;;;;4970319;28;20668;-76
2021/12/19 02:15:49;;;;;;;47.27;22.27;;;-0.60;99.90;;;;;;4970667;28;20047;-76
2021/12/19 02:18:21;;;;;;;49.40;22.90;;;-0.60;99.90;;;;;;4970684;28;20034;-76
2021/12/19 02:20:57;;;;;;;46.80;23.60;;;-0.60;99.90;;;;;;4970928;28;20056;-76
2021/12/19 02:23:25;;;;;;;49.87;23.13;;;-0.60;99.90;;;;;;4970327;28;20035;-73
2021/12/19 02:25:52;;;;;;;50.27;22.53;;;-0.60;99.90;;;;;;4970228;28;20435;-74
2021/12/19 02:28:19;;;;;;;53.67;23.83;;;-0.70;99.90;;;;;;4970397;28;20132;-74
2021/12/19 02:30:45;;;;;;;51.07;23.60;;;-0.70;99.90;;;;;;4970303;28;20011;-73
2021/12/19 02:33:16;;;;;;;50.87;22.67;;;-0.70;99.90;;;;;;4970363;28;20030;-74
2021/12/19 02:35:47;;;;;;;50.97;22.17;;;-0.70;99.90;;;;;;4970274;28;20333;-74
2021/12/19 02:38:38;;;;;;;49.03;21.63;;;-0.70;99.90;;;;;;4970275;28;20015;-73
2021/12/19 02:49:19;;;;;;;50.13;22.63;;;-0.70;99.90;;;;;;4970444;28;20037;-73
2021/12/19 02:51:45;;;;;;;51.63;23.00;;;-0.70;99.90;;;;;;5036446;28;20036;-73
2021/12/19 02:54:10;;;;;;;47.67;22.57;;;-0.70;99.90;;;;;;4969147;28;20035;-73
2021/12/19 02:56:36;;;;;;;48.07;22.33;;;-0.70;99.90;;;;;;4969437;28;20109;-73
2021/12/19 02:59:02;;;;;;;54.53;23.40;;;-0.70;99.90;;;;;;4970073;28;20034;-73
2021/12/19 03:01:27;;;;;;;49.10;21.87;;;-0.70;99.90;;;;;;4970028;28;20030;-73
2021/12/19 03:03:53;;;;;;;49.97;22.17;;;-0.60;99.90;;;;;;4969720;28;20495;-73
2021/12/19 03:06:18;;;;;;;50.37;22.00;;;-0.50;99.90;;;;;;4969774;28;20022;-74
2021/12/19 03:08:47;;;;;;;48.93;21.03;;;-0.60;99.90;;;;;;4969155;28;20041;-73
2021/12/19 03:19:14;;;;;;;42.53;20.67;;;-0.60;99.90;;;;;;4969629;28;20115;-74
2021/12/19 03:21:41;;;;;;;49.33;21.80;;;-0.60;99.90;;;;;;4969682;28;20110;-73
2021/12/19 03:24:07;;;;;;;43.93;19.97;;;-0.60;99.90;;;;;;4969692;28;20102;-73
2021/12/19 03:26:33;;;;;;;46.83;18.83;;;-0.60;99.90;;;;;;4969697;28;20023;-73
2021/12/19 03:28:58;;;;;;;43.10;19.83;;;-0.70;99.90;;;;;;4969434;28;20080;-73
2021/12/19 03:31:26;;;;;;;44.70;19.93;;;-0.60;99.90;;;;;;4969528;28;20035;-73
2021/12/19 03:33:52;;;;;;;46.10;21.17;;;-0.70;99.90;;;;;;4969324;28;20031;-73
2021/12/19 03:36:17;;;;;;;49.07;20.60;;;-0.70;99.90;;;;;;4969066;28;20031;-73
2021/12/19 03:38:44;;;;;;;51.53;20.70;;;-0.80;99.90;;;;;;4969516;28;20034;-73
2021/12/19 03:41:21;;;;;;;55.33;22.27;;;-0.80;99.90;;;;;;5036069;28;20392;-73
2021/12/19 03:43:50;;;;;;;52.20;22.00;;;-0.80;99.90;;;;;;4969259;28;20026;-73
2021/12/19 03:46:18;;;;;;;51.27;21.67;;;-0.80;99.90;;;;;;4968952;28;20058;-73
2021/12/19 03:48:44;;;;;;;49.40;22.33;;;-0.80;99.90;;;;;;4969607;28;20027;-73
2021/12/19 03:51:10;;;;;;;47.23;21.83;;;-0.80;99.90;;;;;;4969051;28;20023;-73
2021/12/19 03:53:35;;;;;;;50.57;21.83;;;-0.80;99.90;;;;;;4966434;28;20118;-73
2021/12/19 03:56:01;;;;;;;48.67;21.97;;;-0.80;99.90;;;;;;4952789;28;20473;-73
2021/12/19 03:58:27;;;;;;;53.80;23.03;;;-0.80;99.90;;;;;;4960609;28;20136;-73
2021/12/19 04:00:59;;;;;;;48.13;20.50;;;-0.80;99.90;;;;;;4972514;28;20513;-73
2021/12/19 04:03:24;;;;;;;47.23;20.27;;;-0.70;99.90;;;;;;4972547;28;20029;-73
2021/12/19 04:05:52;;;;;;;50.60;21.57;;;-0.70;99.90;;;;;;4972025;28;20391;-73
2021/12/19 04:08:19;;;;;;;51.97;21.60;;;-0.80;99.90;;;;;;5039539;28;20062;-73
2021/12/19 04:10:47;;;;;;;51.67;21.27;;;-0.80;99.90;;;;;;4972429;28;20037;-73
2021/12/19 04:13:15;;;;;;;49.93;20.87;;;-0.80;99.90;;;;;;4972123;28;20459;-73
2021/12/19 04:15:40;;;;;;;55.60;22.80;;;-0.80;99.90;;;;;;4972508;28;20134;-73
2021/12/19 04:18:06;;;;;;;54.33;21.77;;;-0.80;99.90;;;;;;4972317;28;20106;-74
2021/12/19 04:20:32;;;;;;;47.23;20.43;;;-0.80;99.90;;;;;;4972391;28;20069;-73
2021/12/19 04:22:57;;;;;;;49.53;21.17;;;-0.80;99.90;;;;;;4971893;28;20031;-74
2021/12/19 04:25:23;;;;;;;49.17;21.40;;;-0.70;99.90;;;;;;4972185;28;20498;-74
2021/12/19 04:27:49;;;;;;;47.33;20.20;;;-0.70;99.90;;;;;;4972043;28;20019;-73
2021/12/19 04:30:21;;;;;;;52.57;21.97;;;-0.70;99.90;;;;;;4972256;28;20480;-74
2021/12/19 04:32:56;;;;;;;52.37;22.63;;;-0.70;99.90;;;;;;5039269;28;20030;-73
2021/12/19 04:35:22;;;;;;;;;;;-0.70;99.90;;;;;;4972368;28;20030;-73
2021/12/19 04:38:57;;;;;;;54.97;22.63;;;-0.80;99.90;;;;;;4971573;28;19986;-73
2021/12/19 04:54:25;;;;;;;54.13;22.40;;;-0.90;99.90;;;;;;4971999;28;20404;-74
2021/12/19 05:14:48;;;;;;;52.40;23.47;;;-0.90;99.90;;;;;;4971729;28;20510;-73
2021/12/19 05:17:20;;;;;;;50.23;22.90;;;-1.00;99.90;;;;;;4971333;28;20046;-74
2021/12/19 05:20:10;;;;;;;48.27;21.20;;;-1.00;99.90;;;;;;4971507;28;20038;-73
2021/12/19 05:22:39;;;;;;;58.30;23.27;;;-0.90;99.90;;;;;;4971913;28;20037;-74
2021/12/19 05:25:14;;;;;;;54.27;22.27;;;-0.90;99.90;;;;;;5037949;28;20039;-73
2021/12/19 05:27:44;;;;;;;56.35;23.85;;;-1.00;99.90;;;;;;4971265;28;20487;-73
2021/12/19 05:30:12;;;;;;;58.00;22.77;;;-0.90;99.90;;;;;;4971229;28;20030;-73
2021/12/19 05:32:39;;;;;;;53.77;21.60;;;-0.90;99.90;;;;;;4970651;28;20044;-73
2021/12/19 05:35:05;;;;;;;48.83;21.53;;;-0.90;99.90;;;;;;4971160;28;20504;-74
2021/12/19 05:45:42;;;;;;;47.10;19.73;;;-0.90;99.90;;;;;;4966127;28;20105;-78
2021/12/19 05:48:08;;;;;;;54.00;21.43;;;-0.90;99.90;;;;;;4967929;28;20024;-78
2021/12/19 05:50:33;;;;;;;53.80;20.50;;;-0.90;99.90;;;;;;5034630;28;20502;-78
2021/12/19 05:52:59;;;;;;;49.47;21.37;;;-0.90;99.90;;;;;;4966977;28;20019;-78
2021/12/19 05:55:24;;;;;;;51.40;21.23;;;-0.90;99.90;;;;;;4964811;28;20442;-78
2021/12/19 05:57:50;;;;;;;51.23;21.83;;;-1.00;99.90;;;;;;4969511;28;20398;-78
2021/12/19 06:00:18;;;;;;;51.87;22.73;;;-1.00;99.90;;;;;;4965376;28;20019;-78
2021/12/19 06:02:44;;;;;;;47.17;20.23;;;-1.00;99.90;;;;;;4966434;28;20031;-78
2021/12/19 06:05:10;;;;;;;53.83;22.57;;;-1.00;99.90;;;;;;4964799;28;20085;-78
2021/12/19 06:07:35;;;;;;;52.30;21.87;;;-1.00;99.90;;;;;;4967244;28;20098;-78
2021/12/19 06:10:03;;;;;;;53.23;21.97;;;-1.00;99.90;;;;;;4969461;28;20442;-78
2021/12/19 06:12:28;;;;;;;53.17;21.23;;;-1.00;99.90;;;;;;4967785;28;20031;-78
2021/12/19 06:14:54;;;;;;;53.67;22.60;;;-1.00;99.90;;;;;;4964656;28;20546;-77
2021/12/19 06:17:19;;;;;;;52.73;21.33;;;-1.00;99.90;;;;;;4963383;28;20158;-78
2021/12/19 06:19:45;;;;;;;46.60;20.17;;;-1.00;99.90;;;;;;4966005;28;20038;-78
2021/12/19 06:22:10;;;;;;;49.47;21.13;;;-0.90;99.90;;;;;;4969750;28;20030;-78
2021/12/19 06:24:36;;;;;;;49.93;21.53;;;-0.90;99.90;;;;;;5036741;28;20023;-78
2021/12/19 06:27:03;;;;;;;54.20;22.87;;;-0.90;99.90;;;;;;4967450;28;20026;-78
2021/12/19 06:29:31;;;;;;;54.10;21.60;;;-0.90;99.90;;;;;;4962880;28;20015;-78
2021/12/19 06:31:57;;;;;;;50.60;22.47;;;-0.90;99.90;;;;;;4961519;28;20019;-78
2021/12/19 06:34:23;;;;;;;50.17;21.70;;;-0.90;99.90;;;;;;5034383;28;20027;-78
2021/12/19 06:36:51;;;;;;;56.27;22.50;;;-0.90;99.90;;;;;;4964623;28;20064;-78
2021/12/19 06:39:17;;;;;;;56.37;22.43;;;-0.90;99.90;;;;;;4967243;28;20069;-78
2021/12/19 06:41:43;;;;;;;52.20;23.00;;;-0.90;99.90;;;;;;4966088;28;20039;-78
2021/12/19 06:44:08;;;;;;;49.23;22.37;;;-0.90;99.90;;;;;;4965557;28;20030;-78
2021/12/19 06:46:34;;;;;;;54.47;23.37;;;-0.90;99.90;;;;;;4969442;28;20089;-78
2021/12/19 06:48:59;;;;;;;54.03;21.70;;;-0.90;99.90;;;;;;4964031;28;20456;-78
2021/12/19 06:51:25;;;;;;;53.10;23.17;;;-0.90;99.90;;;;;;4969056;28;20019;-78
2021/12/19 06:53:50;;;;;;;55.53;23.63;;;-0.90;99.90;;;;;;4970005;28;20106;-78
2021/12/19 06:56:16;;;;;;;53.03;22.93;;;-0.90;99.90;;;;;;4970066;28;20113;-78
2021/12/19 06:58:42;;;;;;;55.90;23.37;;;-0.90;99.90;;;;;;4970705;28;20057;-78
2021/12/19 07:01:08;;;;;;;53.40;24.50;;;-0.90;99.90;;;;;;5036804;28;20092;-78
2021/12/19 07:03:34;;;;;;;52.20;22.83;;;-0.90;99.90;;;;;;4969963;28;20052;-78
2021/12/19 07:05:59;;;;;;;49.67;21.50;;;-0.90;99.90;;;;;;4970298;28;20057;-78
2021/12/19 07:08:25;;;;;;;52.17;23.20;;;-0.90;99.90;;;;;;4970328;28;20371;-77
2021/12/19 07:10:51;;;;;;;48.30;22.20;;;-0.90;99.90;;;;;;4970104;28;20042;-78
2021/12/19 07:13:20;;;;;;;45.23;20.17;;;-1.00;99.90;;;;;;4969876;28;20047;-78
2021/12/19 07:15:50;;;;;;;36.50;19.40;;;-0.90;99.90;;;;;;4969879;28;20043;-78
2021/12/19 07:18:16;;;;;;;38.07;19.37;;;-0.90;99.90;;;;;;4970109;28;20171;-78
2021/12/19 07:20:43;;;;;;;41.93;19.47;;;-0.90;99.90;;;;;;4970084;28;20568;-78
2021/12/19 07:23:20;;;;;;;41.37;20.53;;;-0.90;99.90;;;;;;4970718;28;20033;-78
2021/12/19 07:25:46;;;;;;;41.03;20.37;;;-0.90;99.90;;;;;;4970452;28;20566;-78
2021/12/19 07:28:12;;;;;;;42.20;21.87;;;-0.90;99.90;;;;;;4969458;28;20027;-78
2021/12/19 07:30:39;;;;;;;42.30;21.27;;;-1.00;99.90;;;;;;4969364;28;20015;-78
2021/12/19 07:33:07;;;;;;;43.50;21.47;;;-0.90;99.90;;;;;;4968888;28;20445;-74
2021/12/19 07:35:37;;;;;;;39.20;20.00;;;-0.90;99.90;;;;;;4968625;28;20091;-74
2021/12/19 07:38:08;;;;;;;41.80;20.80;;;-0.90;99.90;;;;;;4968812;28;20027;-74
2021/12/19 07:40:36;;;;;;;40.47;19.83;;;-0.90;99.90;;;;;;4964119;28;20363;-79
2021/12/19 07:43:04;;;;;;;41.70;20.33;;;-0.80;99.90;;;;;;4965709;28;20087;-80
2021/12/19 07:45:32;;;;;;;42.23;20.03;;;-0.90;99.90;;;;;;4963765;28;20031;-75
2021/12/19 07:47:58;;;;;;;43.97;21.07;;;-0.90;99.90;;;;;;4970513;28;20018;-79
2021/12/19 07:50:26;;;;;;;43.27;21.07;;;-0.80;99.90;;;;;;4968902;28;20056;-76
2021/12/19 07:52:53;;;;;;;46.20;21.83;;;-0.90;99.90;;;;;;5001512;28;20420;-75
2021/12/19 07:55:21;;;;;;;46.13;21.60;;;-0.90;99.90;;;;;;5015170;28;20046;-78
2021/12/19 07:57:46;;;;;;;44.33;21.03;;;-0.90;99.90;;;;;;4962161;28;20034;-79
2021/12/19 08:00:14;;;;;;;44.17;21.03;;;-0.90;99.90;;;;;;5013472;28;20038;-75
2021/12/19 08:02:42;;;;;;;45.03;20.40;;;-0.90;99.90;;;;;;4960603;28;20107;-81
2021/12/19 08:05:08;;;;;;;49.57;22.30;;;-0.80;99.90;;;;;;5029734;28;20034;-74
2021/12/19 08:07:34;;;;;;;43.70;21.07;;;-0.90;99.90;;;;;;4951513;28;20094;-74
2021/12/19 08:10:12;;;;;;;44.30;22.43;;;-0.80;99.90;;;;;;4959141;28;20098;-74
2021/12/19 08:12:39;;;;;;;41.97;21.37;;;-0.80;99.90;;;;;;4951191;28;20027;-74
2021/12/19 08:15:06;;;;;;;45.20;21.83;;;-0.70;99.90;;;;;;4962343;28;20406;-79
2021/12/19 08:17:33;;;;;;;41.23;21.13;;;-0.70;99.90;;;;;;4964000;28;20027;-80
2021/12/19 08:20:00;;;;;;;43.03;22.20;;;-0.70;99.90;;;;;;4954791;28;20114;-79
2021/12/19 08:22:27;;;;;;;42.43;20.93;;;-0.70;99.90;;;;;;4956696;28;20130;-79
2021/12/19 08:24:53;;;;;;;36.37;19.87;;;-0.70;99.90;;;;;;4956487;28;20031;-80
2021/12/19 08:27:18;;;;;;;41.23;21.40;;;-0.70;99.90;;;;;;4958317;28;20034;-79
2021/12/19 08:29:46;;;;;;;36.73;19.50;;;-0.60;99.90;;;;;;4955985;28;20027;-75
2021/12/19 08:32:12;;;;;;;34.07;19.10;;;-0.60;99.90;;;;;;4957874;28;20027;-79
2021/12/19 08:34:38;;;;;;;35.83;19.90;;;-0.60;99.90;;;;;;4956388;28;20035;-79
2021/12/19 08:37:05;;;;;;;34.57;19.03;;;-0.60;99.90;;;;;;4957693;28;20050;-79
2021/12/19 08:39:33;;;;;;;34.50;18.50;;;-0.60;99.90;;;;;;5024126;28;20060;-79
2021/12/19 08:41:58;;;;;;;37.13;20.30;;;-0.60;99.90;;;;;;4960706;28;20367;-79
2021/12/19 08:44:24;;;;;;;37.53;20.70;;;-0.60;99.90;;;;;;4960236;28;20395;-74
2021/12/19 08:46:50;;;;;;;37.67;18.97;;;-0.60;99.90;;;;;;4962822;28;20560;-74
2021/12/19 08:49:16;;;;;;;36.77;20.03;;;-0.60;99.90;;;;;;4959532;28;20029;-74
2021/12/19 08:51:41;;;;;;;38.63;20.87;;;-0.70;99.90;;;;;;4962163;28;20602;-74
2021/12/19 08:54:08;;;;;;;39.23;20.73;;;-0.70;99.90;;;;;;4960904;28;20042;-74
2021/12/19 08:56:34;;;;;;;33.23;19.90;;;-0.70;99.90;;;;;;4961380;28;20036;-74
2021/12/19 08:59:01;;;;;;;37.13;19.53;;;-0.70;99.90;;;;;;4963229;28;20028;-74
2021/12/19 09:01:27;;;;;;;37.20;20.83;;;-0.70;99.90;;;;;;4966182;28;20049;-74
2021/12/19 09:03:53;;;;;;;35.10;18.93;;;-0.70;99.90;;;;;;4966136;28;20049;-75
2021/12/19 09:06:18;;;;;;;37.97;20.40;;;-0.70;99.90;;;;;;4961031;28;20031;-74
2021/12/19 09:08:44;;;;;;;37.37;20.60;;;-0.60;99.90;;;;;;4963460;28;20099;-74
2021/12/19 09:11:10;;;;;;;36.47;19.40;;;-0.60;99.90;;;;;;4960232;28;20072;-74
2021/12/19 09:13:36;;;;;;;31.67;18.40;;;-0.50;99.90;;;;;;5025158;28;20472;-77
2021/12/19 09:16:02;;;;;;;35.77;19.73;;;-0.50;99.90;;;;;;4960852;28;20042;-79
2021/12/19 09:18:31;;;;;;;34.80;19.03;;;-0.50;99.90;;;;;;4961775;28;20114;-80
2021/12/19 09:20:57;;;;;;;36.47;19.13;;;-0.50;99.90;;;;;;4962443;28;20027;-80
2021/12/19 09:23:22;;;;;;;35.10;19.27;;;-0.50;99.90;;;;;;5023007;28;20452;-80
2021/12/19 09:25:48;;;;;;;36.30;20.33;;;-0.40;99.90;;;;;;5041527;28;20141;-80
2021/12/19 09:28:14;;;;;;;37.83;20.10;;;-0.40;99.90;;;;;;4963775;28;20065;-80
2021/12/19 09:30:41;;;;;;;39.87;20.80;;;-0.40;99.90;;;;;;5029022;28;20109;-80
2021/12/19 09:33:09;;;;;;;33.03;19.10;;;-0.40;99.90;;;;;;4979847;28;20153;-79
2021/12/19 09:35:35;;;;;;;32.63;18.57;;;-0.30;99.90;;;;;;5058961;28;20236;-80
2021/12/19 09:38:04;;;;;;;33.90;19.47;;;-0.30;99.90;;;;;;4960076;28;20093;-80
2021/12/19 09:40:35;;;;;;;34.03;19.40;;;-0.20;99.90;;;;;;4962990;28;20073;-80
2021/12/19 09:43:31;;;;;;;37.03;19.73;;;-0.20;99.90;;;;;;5031831;28;20027;-80
2021/12/19 09:45:59;;;;;;;34.72;19.02;;;-0.20;99.90;;;;;;4974639;28;20078;-79
2021/12/19 09:48:24;;;;;;;37.73;20.43;;;-0.10;99.90;;;;;;4965376;28;20038;-77
2021/12/19 09:50:50;;;;;;;35.50;19.27;;;-0.10;99.90;;;;;;4965887;28;20038;-79
2021/12/19 09:53:16;;;;;;;33.43;18.03;;;-0.20;99.90;;;;;;4968395;28;20123;-79
2021/12/19 09:55:41;;;;;;;37.00;19.87;;;-0.10;99.90;;;;;;4968544;28;20066;-79
2021/12/19 09:58:09;;;;;;;41.73;20.23;;;-0.10;99.90;;;;;;5026825;28;20415;-82
2021/12/19 10:00:34;;;;;;;36.67;17.90;;;-0.10;99.90;;;;;;4960133;28;20239;-82
2021/12/19 10:03:00;;;;;;;34.73;18.27;;;-0.10;99.90;;;;;;4963616;28;20163;-82
2021/12/19 10:05:27;;;;;;;40.17;19.17;;;-0.10;99.90;;;;;;4962702;28;20035;-82
2021/12/19 10:08:00;;;;;;;34.43;18.33;;;-0.10;99.90;;;;;;4968210;28;20337;-81
2021/12/19 10:10:42;;;;;;;40.77;19.90;;;-0.10;99.90;;;;;;4964647;28;20076;-81
2021/12/19 10:13:11;;;;;;;38.93;18.47;;;0.00;99.90;;;;;;4970028;28;20482;-80
2021/12/19 10:15:41;;;;;;;36.97;18.10;;;0.00;99.90;;;;;;4962558;28;20138;-81
2021/12/19 10:18:12;;;;;;;35.83;18.60;;;0.00;99.90;;;;;;4959613;28;20450;-81
2021/12/19 10:20:51;;;;;;;42.50;20.33;;;0.00;99.90;;;;;;4961976;28;20103;-80
2021/12/19 10:23:18;;;;;;;39.30;20.30;;;0.00;99.90;;;;;;4960798;28;20030;-80
2021/12/19 10:25:46;;;;;;;40.00;20.63;;;0.00;99.90;;;;;;4967100;28;20759;-80
2021/12/19 10:28:12;;;;;;;41.53;19.80;;;0.00;99.90;;;;;;5026066;28;20057;-80
2021/12/19 10:30:46;;;;;;;36.10;20.17;;;0.00;99.90;;;;;;4958794;28;20035;-80
2021/12/19 10:33:17;;;;;;;34.67;19.07;;;0.10;99.90;;;;;;4960676;28;20038;-81
2021/12/19 10:35:47;;;;;;;40.07;21.47;;;0.10;99.90;;;;;;4963188;28;20030;-80
2021/12/19 10:38:15;;;;;;;39.10;19.90;;;0.10;99.90;;;;;;4967478;28;20459;-81
2021/12/19 10:40:49;;;;;;;39.77;19.63;;;0.10;99.90;;;;;;4961583;28;20042;-82
2021/12/19 10:43:17;;;;;;;37.75;19.75;;;0.20;99.90;;;;;;4959960;28;20088;-82
2021/12/19 10:45:44;;;;;;;33.23;18.63;;;0.30;99.90;;;;;;4961686;28;20027;-82
2021/12/19 10:48:18;;;;;;;33.77;17.53;;;0.30;99.90;;;;;;4961789;28;20028;-82
2021/12/19 10:51:07;;;;;;;34.27;18.47;;;0.30;99.90;;;;;;4958887;28;20059;-82
2021/12/19 10:53:38;;;;;;;35.90;19.13;;;0.30;99.90;;;;;;4957692;28;20916;-82
2021/12/19 10:56:09;;;;;;;29.00;17.27;;;0.40;99.90;;;;;;5033767;28;20027;-82
2021/12/19 10:58:39;;;;;;;33.80;17.43;;;0.50;99.90;;;;;;4964478;28;20028;-81
2021/12/19 11:01:10;;;;;;;34.10;19.20;;;0.60;99.90;;;;;;4960231;28;20406;-79
2021/12/19 11:03:39;;;;;;;36.43;19.87;;;0.80;99.90;;;;;;4967796;28;20215;-83
2021/12/19 11:06:26;;;;;;;30.23;17.10;;;0.90;99.90;;;;;;4961877;28;20023;-86
2021/12/19 11:08:53;;;;;;;31.40;17.37;;;1.10;99.90;;;;;;4959013;28;20103;-85
2021/12/19 11:11:32;;;;;;;29.60;15.73;;;1.30;99.90;;;;;;4959678;28;20019;-85
2021/12/19 11:14:02;;;;;;;27.80;15.97;;;1.40;99.90;;;;;;5023939;28;20033;-86
2021/12/19 11:16:30;;;;;;;25.37;14.63;;;1.60;99.90;;;;;;4959493;28;20051;-86
2021/12/19 11:18:56;;;;;;;27.63;16.00;;;1.70;99.90;;;;;;4960371;28;20050;-86
2021/12/19 11:21:22;;;;;;;27.87;16.00;;;1.80;99.90;;;;;;4958154;28;20037;-84
2021/12/19 11:23:48;;;;;;;24.70;14.67;;;1.90;99.90;;;;;;4958594;28;20113;-84
2021/12/19 11:26:16;;;;;;;23.13;14.37;;;2.00;99.90;;;;;;4959481;28;20077;-86
2021/12/19 11:28:42;;;;;;;25.73;15.30;;;2.20;99.90;;;;;;4962770;28;20023;-86
2021/12/19 11:31:08;;;;;;;26.50;15.03;;;2.30;99.90;;;;;;5021900;28;20020;-86
2021/12/19 11:34:16;;;;;;;27.37;16.40;;;2.30;99.90;;;;;;4963657;28;20102;-85
2021/12/19 11:36:46;;;;;;;26.37;15.63;;;2.20;99.90;;;;;;5052730;28;20031;-83
2021/12/19 11:39:12;;;;;;;26.20;15.50;;;2.20;99.90;;;;;;4958492;28;20376;-83
2021/12/19 11:41:58;;;;;;;28.60;16.27;;;2.10;99.90;;;;;;4958472;28;20114;-84
2021/12/19 11:44:33;;;;;;;26.17;15.30;;;2.00;99.90;;;;;;4962800;28;20176;-83
2021/12/19 11:47:04;;;;;;;26.58;16.40;;;2.00;99.90;;;;;;4966789;28;20023;-83
2021/12/19 11:49:30;;;;;;;24.87;15.23;;;2.00;99.90;;;;;;4964168;28;20472;-83
2021/12/19 11:52:25;;;;;;;25.80;14.63;;;2.10;99.90;;;;;;4961543;28;20019;-82
2021/12/19 11:55:23;;;;;;;24.13;14.15;;;2.10;99.90;;;;;;4959999;28;20023;-82
2021/12/19 11:58:22;;;;;;;26.33;15.07;;;2.20;99.90;;;;;;4969249;28;20054;-81
2021/12/19 12:01:04;;;;;;;25.57;15.87;;;2.20;99.90;;;;;;4960695;28;20041;-81
2021/12/19 12:03:31;;;;;;;23.53;14.43;;;2.40;99.90;;;;;;4958930;28;20361;-84
2021/12/19 12:06:09;;;;;;;28.37;14.83;;;2.50;99.90;;;;;;4957248;28;20042;-84
2021/12/19 12:08:34;;;;;;;23.53;14.43;;;2.60;99.90;;;;;;4956054;28;20171;-83
2021/12/19 12:11:01;;;;;;;23.03;14.40;;;2.60;99.90;;;;;;5047685;28;20462;-84
2021/12/19 12:13:41;;;;;;;23.47;14.33;;;2.70;99.90;;;;;;4956833;28;20073;-84
2021/12/19 12:16:36;;;;;;;23.40;14.17;;;2.90;99.90;;;;;;4960760;28;20392;-84
2021/12/19 12:19:03;;;;;;;23.73;13.93;;;2.90;99.90;;;;;;4964127;28;20914;-84
2021/12/19 12:24:12;;;;;;;22.40;13.67;;;3.00;99.90;;;;;;4960514;28;20046;-84
2021/12/19 12:26:46;;;;;;;23.23;14.73;;;3.10;99.90;;;;;;4965307;28;20027;-84
2021/12/19 12:29:12;;;;;;;24.00;14.17;;;3.10;99.90;;;;;;4958979;28;20034;-84
2021/12/19 12:31:40;;;;;;;23.57;15.17;;;3.10;99.90;;;;;;4963275;28;20102;-84
2021/12/19 12:34:09;;;;;;;23.43;14.23;;;3.10;99.90;;;;;;4963908;28;20042;-80
2021/12/19 12:36:34;;;;;;;23.63;14.23;;;3.10;99.90;;;;;;5027746;28;20039;-80
2021/12/19 12:39:05;;;;;;;23.17;14.70;;;3.10;99.90;;;;;;4960801;28;20035;-80
2021/12/19 12:44:10;;;;;;;22.83;14.63;;;3.30;99.90;;;;;;4965322;28;20032;-82
2021/12/19 12:46:36;;;;;;;23.53;14.63;;;3.30;99.90;;;;;;4966175;28;20027;-82
2021/12/19 12:49:26;;;;;;;22.30;14.40;;;3.30;99.90;;;;;;5024874;28;20114;-82
2021/12/19 12:52:00;;;;;;;21.87;14.57;;;3.40;99.90;;;;;;4969768;28;20439;-82
2021/12/19 12:54:37;;;;;;;24.17;15.40;;;3.50;99.90;;;;;;4965202;28;20611;-82
2021/12/19 12:57:11;;;;;;;26.33;15.90;;;3.70;99.90;;;;;;4965459;28;20042;-82
2021/12/19 12:59:42;;;;;;;23.40;14.80;;;3.60;99.90;;;;;;4962741;28;20066;-83
2021/12/19 13:02:26;;;;;;;26.20;14.97;;;3.50;99.90;;;;;;5023186;28;20471;-82
2021/12/19 13:04:52;;;;;;;22.07;14.93;;;3.60;99.90;;;;;;5031570;28;20023;-82
2021/12/19 13:07:21;;;;;;;24.07;14.67;;;3.70;99.90;;;;;;4959981;28;20059;-86
2021/12/19 13:09:51;;;;;;;23.83;14.73;;;3.70;99.90;;;;;;4959836;28;20019;-81
2021/12/19 13:12:16;;;;;;;26.70;16.43;;;3.40;99.90;;;;;;4961469;28;20027;-79
2021/12/19 13:14:46;;;;;;;25.47;14.93;;;3.20;99.90;;;;;;5026332;28;20404;-82
2021/12/19 13:17:20;;;;;;;25.57;15.60;;;3.10;99.90;;;;;;4958863;28;20043;-81
2021/12/19 13:19:48;;;;;;;29.87;17.37;;;3.00;99.90;;;;;;5051327;28;20117;-81
2021/12/19 13:22:24;;;;;;;25.73;15.87;;;2.90;99.90;;;;;;4960230;28;20149;-81
2021/12/19 13:24:51;;;;;;;24.33;15.13;;;2.80;99.90;;;;;;4957232;28;20027;-81
2021/12/19 13:27:26;;;;;;;24.47;14.57;;;2.80;99.90;;;;;;4960273;28;20026;-79
2021/12/19 13:30:15;;;;;;;;;;;2.70;99.90;;;;;;4965692;28;20027;-79
2021/12/19 13:32:47;;;;;;;23.90;14.97;;;2.60;99.90;;;;;;4966801;28;19910;-80
2021/12/19 13:35:35;;;;;;;25.13;14.47;;;2.50;99.90;;;;;;5022687;28;20530;-79
2021/12/19 13:38:07;;;;;;;25.07;14.93;;;2.40;99.90;;;;;;4964230;28;20344;-80
2021/12/19 13:40:40;;;;;;;27.70;15.70;;;2.40;99.90;;;;;;4960731;28;20037;-82
2021/12/19 13:43:31;;;;;;;29.03;15.60;;;2.30;99.90;;;;;;4958527;28;20035;-82
2021/12/19 13:45:57;;;;;;;26.43;15.53;;;2.20;99.90;;;;;;4957229;28;20043;-83
2021/12/19 13:48:32;;;;;;;30.20;17.03;;;2.20;99.90;;;;;;4963873;28;20023;-80